createdAt,value
2023-03-22T00:00:30.214Z,100261.00
2023-03-22T00:05:58.638Z,100261.40
2023-03-22T00:11:03.035Z,100255.00
2023-03-22T00:16:07.168Z,100248.20
2023-03-22T00:21:16.158Z,100244.60
2023-03-22T00:26:19.249Z,100238.00
2023-03-22T00:31:22.364Z,100233.80
2023-03-22T00:36:26.350Z,100232.60
2023-03-22T00:41:29.464Z,100232.20
2023-03-22T00:46:32.553Z,100226.80
2023-03-22T00:51:35.791Z,100231.80
2023-03-22T00:56:38.814Z,100227.60
2023-03-22T01:01:41.883Z,100224.00
2023-03-22T01:06:45.095Z,100223.80
2023-03-22T01:11:48.194Z,100220.80
2023-03-22T01:16:51.877Z,100209.80
2023-03-22T01:21:55.736Z,100197.80
2023-03-22T01:26:58.855Z,100191.00
2023-03-22T01:32:02.153Z,100182.00
2023-03-22T01:37:05.370Z,100170.60
2023-03-22T01:42:14.504Z,100164.00
2023-03-22T01:47:17.620Z,100164.40
2023-03-22T01:52:20.829Z,100156.20
2023-03-22T01:57:24.826Z,100146.60
2023-03-22T02:02:31.174Z,100126.00
2023-03-22T02:07:34.457Z,100139.20
2023-03-22T02:13:27.634Z,100126.80
2023-03-22T02:19:21.018Z,100131.20
2023-03-22T02:24:30.071Z,100114.00
2023-03-22T02:29:48.837Z,100119.20
2023-03-22T02:35:13.544Z,100113.00
2023-03-22T02:41:01.301Z,100108.80
2023-03-22T02:46:23.587Z,100099.40
2023-03-22T02:51:46.115Z,100097.60
2023-03-22T02:57:00.699Z,100104.60
2023-03-22T03:02:05.880Z,100105.80
2023-03-22T03:07:14.555Z,100107.20
2023-03-22T03:12:25.313Z,100105.00
2023-03-22T03:18:05.235Z,100103.80
2023-03-22T03:23:28.846Z,100098.60
2023-03-22T03:29:06.354Z,100095.60
2023-03-22T03:34:27.827Z,100091.20
2023-03-22T03:39:37.335Z,100099.00
2023-03-22T03:44:41.707Z,100099.60
2023-03-22T03:49:44.811Z,100094.60
2023-03-22T03:54:48.015Z,100096.00
2023-03-22T03:59:51.091Z,100098.40
2023-03-22T04:04:54.092Z,100098.60
2023-03-22T04:09:57.226Z,100096.40
2023-03-22T04:15:00.680Z,100090.40
2023-03-22T04:20:06.356Z,100086.80
2023-03-22T04:25:13.350Z,100085.80
2023-03-22T04:30:19.252Z,100083.40
2023-03-22T04:35:23.308Z,100082.00
2023-03-22T04:40:27.238Z,100083.20
2023-03-22T04:45:32.622Z,100083.00
2023-03-22T04:50:35.689Z,100078.20
2023-03-22T04:55:39.104Z,100071.80
2023-03-22T05:00:42.514Z,100065.80
2023-03-22T05:05:57.089Z,100066.80
2023-03-22T05:11:08.390Z,100060.80
2023-03-22T05:16:12.451Z,100057.40
2023-03-22T05:21:22.248Z,100059.40
2023-03-22T05:26:27.248Z,100049.20
2023-03-22T05:31:30.874Z,100039.20
2023-03-22T05:36:36.725Z,100033.20
2023-03-22T05:41:39.809Z,100029.40
2023-03-22T05:46:42.888Z,100029.80
2023-03-22T05:51:46.133Z,100027.40
2023-03-22T05:56:49.441Z,100028.00
2023-03-22T06:01:52.629Z,100024.00
2023-03-22T06:06:56.706Z,100025.20
2023-03-22T06:11:59.884Z,100020.60
2023-03-22T06:17:03.762Z,100019.60
2023-03-22T06:22:06.820Z,100020.40
2023-03-22T06:27:10.863Z,100023.00
2023-03-22T06:32:13.954Z,100022.20
2023-03-22T06:37:17.255Z,100015.80
2023-03-22T06:42:20.574Z,100012.00
2023-03-22T06:47:25.020Z,100009.80
2023-03-22T06:52:28.102Z,100001.80
2023-03-22T06:57:31.426Z,100000.60
2023-03-22T07:02:34.531Z,99997.80
2023-03-22T07:07:38.053Z,100002.20
2023-03-22T07:12:41.873Z,100003.40
2023-03-22T07:17:45.410Z,100009.20
2023-03-22T07:22:51.412Z,100005.20
2023-03-22T07:27:54.497Z,100006.00
2023-03-22T07:32:57.566Z,99996.80
2023-03-22T07:38:01.420Z,99987.40
2023-03-22T07:43:04.500Z,99981.20
2023-03-22T07:48:11.532Z,99979.00
2023-03-22T07:53:15.124Z,99976.20
2023-03-22T07:58:18.337Z,99983.60
2023-03-22T08:03:22.491Z,99988.40
2023-03-22T08:08:26.708Z,99986.60
2023-03-22T08:13:30.511Z,99980.40
2023-03-22T08:18:33.720Z,99974.60
2023-03-22T08:23:41.824Z,99970.00
2023-03-22T08:28:45.773Z,99971.20
2023-03-22T08:33:49.512Z,99967.60
2023-03-22T08:38:53.331Z,99966.80
2023-03-22T08:43:56.663Z,99969.00
2023-03-22T08:49:01.395Z,99965.80
2023-03-22T08:54:05.604Z,99965.00
2023-03-22T08:59:10.471Z,99960.80
2023-03-22T09:04:14.272Z,99959.60
2023-03-22T09:09:17.689Z,99960.60
2023-03-22T09:14:21.000Z,99961.20
2023-03-22T09:19:24.201Z,99962.00
2023-03-22T09:24:27.308Z,99955.80
2023-03-22T09:29:31.412Z,99957.40
2023-03-22T09:34:34.685Z,99959.00
2023-03-22T09:39:38.692Z,99952.00
2023-03-22T09:44:46.287Z,99953.80
2023-03-22T09:50:01.702Z,99951.60
2023-03-22T09:55:20.892Z,99951.20
2023-03-22T10:00:53.777Z,99941.80
2023-03-22T10:06:29.397Z,99940.00
2023-03-22T10:11:46.215Z,99932.00
2023-03-22T10:16:56.445Z,99930.60
2023-03-22T10:22:04.122Z,99929.20
2023-03-22T10:27:20.932Z,99931.00
2023-03-22T10:32:56.490Z,99929.60
2023-03-22T10:38:07.402Z,99930.20
2023-03-22T10:43:33.398Z,99937.20
2023-03-22T10:48:47.915Z,99933.00
2023-03-22T10:53:55.268Z,99937.40
2023-03-22T10:58:58.694Z,99932.80
2023-03-22T11:04:17.492Z,99929.00
2023-03-22T11:09:24.558Z,99914.20
2023-03-22T11:14:36.903Z,99921.80
2023-03-22T11:19:52.074Z,99913.40
2023-03-22T11:24:57.166Z,99915.40
2023-03-22T11:30:23.923Z,99914.20
2023-03-22T11:35:29.770Z,99915.00
2023-03-22T11:40:37.062Z,99907.80
2023-03-22T11:45:44.398Z,99904.40
2023-03-22T11:50:49.073Z,99902.60
2023-03-22T11:55:57.373Z,99902.20
2023-03-22T12:01:04.072Z,99904.00
2023-03-22T12:06:26.692Z,99904.60
2023-03-22T12:11:39.000Z,99899.60
2023-03-22T12:16:56.445Z,99891.60
2023-03-22T12:22:00.381Z,99887.80
2023-03-22T12:27:27.383Z,99884.00
2023-03-22T12:32:38.756Z,99866.20
2023-03-22T12:37:48.176Z,99861.40
2023-03-22T12:43:24.100Z,99864.80
2023-03-22T12:48:33.570Z,99863.40
2023-03-22T12:53:52.567Z,99861.40
2023-03-22T12:59:03.704Z,99865.60
2023-03-22T13:04:26.057Z,99856.40
2023-03-22T13:09:50.465Z,99861.40
2023-03-22T13:15:13.878Z,99855.00
2023-03-22T13:20:20.328Z,99859.40
2023-03-22T13:25:39.800Z,99851.60
2023-03-22T13:30:59.019Z,99846.60
2023-03-22T13:36:32.212Z,99849.80
2023-03-22T13:41:36.766Z,99850.40
2023-03-22T13:46:39.941Z,99848.00
2023-03-22T13:51:44.951Z,99837.60
2023-03-22T13:56:56.756Z,99837.60
2023-03-22T14:02:22.491Z,99833.00
2023-03-22T14:07:40.399Z,99831.00
2023-03-22T14:13:25.733Z,99820.20
2023-03-22T14:18:32.810Z,99811.80
